Time;durP1;ratioP1;P1;durP2;ratioP2;P2;SDS_P1;SDS_P2;PMS_P1;PMS_P2;Temp;Humidity;BMP_temperature;BMP_pressure;BME280_temperature;BME280_humidity;BME280_pressure;Samples;Min_cycle;Max_cycle;Signal;HPM_P1;HPM_P2
2022/01/13 00:00:13;;;;;;;6.80;6.20;;;15.80;39.50;;;;;;5077377;28;20289;-66
2022/01/13 00:02:41;;;;;;;6.85;6.25;;;15.80;39.60;;;;;;5077302;28;20574;-67
2022/01/13 00:05:09;;;;;;;7.45;6.78;;;15.80;39.60;;;;;;5077059;28;20247;-69
2022/01/13 00:07:37;;;;;;;6.82;6.22;;;15.70;39.60;;;;;;5077183;28;20314;-69
2022/01/13 00:10:04;;;;;;;7.10;6.40;;;15.80;39.70;;;;;;5077135;28;20198;-68
2022/01/13 00:12:36;;;;;;;6.90;6.30;;;15.70;39.70;;;;;;5077311;28;20216;-69
2022/01/13 00:18:03;;;;;;;7.43;6.72;;;15.70;39.70;;;;;;5071598;28;20222;-69
2022/01/13 00:21:10;;;;;;;7.00;6.30;;;15.70;39.80;;;;;;5095388;28;20189;-69
2022/01/13 00:23:46;;;;;;;6.97;6.38;;;15.70;39.80;;;;;;5076843;28;20284;-69
2022/01/13 00:26:20;;;;;;;7.65;6.95;;;15.70;39.80;;;;;;5077054;28;20197;-67
2022/01/13 00:28:49;;;;;;;6.35;5.85;;;15.70;39.80;;;;;;5097155;28;20550;-68
2022/01/13 00:31:18;;;;;;;7.22;6.53;;;15.70;39.90;;;;;;5096200;28;20268;-66
2022/01/13 00:33:46;;;;;;;7.57;6.97;;;15.60;39.90;;;;;;5077597;28;20218;-68
2022/01/13 00:36:14;;;;;;;7.43;6.68;;;15.60;39.80;;;;;;5095119;28;20194;-69
2022/01/13 00:38:42;;;;;;;7.28;6.68;;;15.60;39.90;;;;;;5076940;28;20209;-70
2022/01/13 00:41:09;;;;;;;7.70;7.00;;;15.60;40.00;;;;;;5076860;28;20670;-68
2022/01/13 00:43:40;;;;;;;7.40;6.70;;;15.60;39.90;;;;;;5077126;28;20195;-68
2022/01/13 00:46:07;;;;;;;6.65;6.15;;;15.60;39.80;;;;;;5077583;28;20194;-68
2022/01/13 00:48:34;;;;;;;7.13;6.53;;;15.60;40.00;;;;;;5078029;28;20220;-70
2022/01/13 00:51:01;;;;;;;7.30;6.70;;;15.60;40.00;;;;;;5076696;28;20213;-70
2022/01/13 00:53:28;;;;;;;6.93;6.32;;;15.60;40.00;;;;;;5094882;28;20220;-65
2022/01/13 00:55:59;;;;;;;6.68;6.07;;;15.60;40.10;;;;;;5076797;28;20276;-70
2022/01/13 00:58:27;;;;;;;7.35;6.65;;;15.60;40.20;;;;;;5076560;28;20504;-69
2022/01/13 01:00:54;;;;;;;7.22;6.53;;;15.60;40.10;;;;;;5076243;28;20748;-68
2022/01/13 01:03:21;;;;;;;7.32;6.72;;;15.50;40.00;;;;;;5076036;28;20198;-68
2022/01/13 01:05:49;;;;;;;7.05;6.45;;;15.50;40.00;;;;;;5076114;28;20229;-68
2022/01/13 01:08:16;;;;;;;7.30;6.60;;;15.60;40.10;;;;;;5076326;28;20253;-70
2022/01/13 01:10:45;;;;;;;7.63;6.93;;;15.50;40.10;;;;;;5076261;28;20194;-68
2022/01/13 01:13:16;;;;;;;7.38;6.68;;;15.50;40.10;;;;;;5075896;28;20209;-69
2022/01/13 01:15:47;;;;;;;7.68;6.97;;;15.50;40.20;;;;;;5075926;28;20705;-70
2022/01/13 01:18:25;;;;;;;7.57;6.88;;;15.50;40.10;;;;;;5094049;28;20209;-68
2022/01/13 01:21:14;;;;;;;7.38;6.72;;;15.50;40.10;;;;;;5075952;28;20225;-68
2022/01/13 01:23:57;;;;;;;8.00;7.30;;;15.50;40.10;;;;;;5079564;28;20182;-69
2022/01/13 01:26:31;;;;;;;7.93;6.82;;;15.50;40.10;;;;;;5081882;28;20271;-68
2022/01/13 01:29:06;;;;;;;7.65;6.95;;;15.50;40.70;;;;;;5081086;28;20217;-67
2022/01/13 01:31:36;;;;;;;7.78;7.10;;;15.50;40.10;;;;;;5077248;28;20186;-70
2022/01/13 01:34:18;;;;;;;8.05;7.35;;;15.50;40.10;;;;;;5075824;28;20214;-68
2022/01/13 01:36:45;;;;;;;8.02;7.30;;;15.50;40.10;;;;;;5075534;28;20189;-68
2022/01/13 01:39:12;;;;;;;7.97;7.28;;;15.40;40.00;;;;;;5095290;28;20225;-67
2022/01/13 01:41:40;;;;;;;8.05;7.28;;;15.40;40.10;;;;;;5075536;28;20194;-69
2022/01/13 01:44:09;;;;;;;7.97;7.28;;;15.50;40.30;;;;;;5075444;28;20619;-69
2022/01/13 01:46:36;;;;;;;7.57;6.88;;;15.40;40.10;;;;;;5075243;28;20650;-68
2022/01/13 01:49:07;;;;;;;7.68;6.97;;;15.40;40.10;;;;;;5075042;28;20220;-68
2022/01/13 01:51:34;;;;;;;7.88;7.18;;;15.40;40.20;;;;;;5075272;28;20638;-67
2022/01/13 01:54:01;;;;;;;7.88;7.18;;;15.40;40.10;;;;;;5093326;28;20289;-70
2022/01/13 01:56:29;;;;;;;7.97;7.35;;;15.40;40.30;;;;;;5093124;28;20193;-70
2022/01/13 01:59:00;;;;;;;8.02;7.22;;;15.40;40.30;;;;;;5075089;28;20268;-66
2022/01/13 02:01:30;;;;;;;8.38;7.57;;;15.30;40.10;;;;;;5074903;28;20251;-68
2022/01/13 02:03:57;;;;;;;8.07;7.28;;;15.40;40.30;;;;;;5074462;28;20198;-68
2022/01/13 02:06:27;;;;;;;8.80;8.00;;;15.40;40.10;;;;;;5075017;28;20633;-67
2022/01/13 02:08:56;;;;;;;7.80;7.10;;;15.40;40.20;;;;;;5074930;28;20210;-69
2022/01/13 02:11:23;;;;;;;9.23;8.32;;;15.30;40.20;;;;;;5075135;28;20292;-69
2022/01/13 02:13:53;;;;;;;8.55;7.85;;;15.30;40.10;;;;;;5092599;28;20241;-68
2022/01/13 02:16:38;;;;;;;7.57;6.97;;;15.30;40.30;;;;;;5074744;28;20662;-68
2022/01/13 02:19:06;;;;;;;8.13;7.43;;;15.30;40.30;;;;;;5074626;28;20275;-69
2022/01/13 02:21:35;;;;;;;7.90;7.20;;;15.30;40.80;;;;;;5093109;28;20189;-68
2022/01/13 02:24:02;;;;;;;8.85;8.05;;;15.30;40.20;;;;;;5074842;28;20195;-67
2022/01/13 02:26:29;;;;;;;8.68;7.88;;;15.30;40.10;;;;;;5092961;28;20201;-66
2022/01/13 02:28:56;;;;;;;8.85;8.05;;;15.30;40.10;;;;;;5074662;28;20222;-69
2022/01/13 02:31:25;;;;;;;8.55;7.75;;;15.30;40.10;;;;;;5074902;28;20289;-68
2022/01/13 02:33:52;;;;;;;9.32;8.35;;;15.30;40.10;;;;;;5074633;28;20686;-66
2022/01/13 02:36:20;;;;;;;9.75;8.82;;;15.30;40.00;;;;;;5074879;28;20198;-67
2022/01/13 02:38:50;;;;;;;8.48;7.68;;;15.20;40.00;;;;;;5074424;28;20236;-68
2022/01/13 02:41:17;;;;;;;8.95;8.15;;;15.20;40.50;;;;;;5092783;28;20198;-68
2022/01/13 02:43:44;;;;;;;7.97;7.28;;;15.20;40.00;;;;;;5074579;28;20321;-67
2022/01/13 02:46:31;;;;;;;9.45;8.55;;;15.30;40.10;;;;;;5074619;28;20221;-67
2022/01/13 02:48:59;;;;;;;8.68;7.88;;;15.20;39.90;;;;;;5074526;28;20224;-69
2022/01/13 02:51:26;;;;;;;8.95;8.05;;;15.20;40.00;;;;;;5074679;28;20210;-66
2022/01/13 02:53:55;;;;;;;9.27;8.48;;;15.20;40.00;;;;;;5092392;28;20210;-69
2022/01/13 02:56:22;;;;;;;9.35;8.50;;;15.20;39.90;;;;;;5074433;28;20225;-69
2022/01/13 02:58:50;;;;;;;8.55;7.75;;;15.20;40.00;;;;;;5074304;28;20310;-69
2022/01/13 03:01:17;;;;;;;8.63;7.93;;;15.20;40.10;;;;;;5092703;28;20285;-68
2022/01/13 03:03:45;;;;;;;8.93;8.13;;;15.20;39.90;;;;;;5074295;28;20285;-69
2022/01/13 03:06:13;;;;;;;8.88;7.97;;;15.20;40.10;;;;;;5074326;28;20264;-69
2022/01/13 03:08:43;;;;;;;8.18;7.47;;;15.10;39.90;;;;;;5074539;28;20214;-69
2022/01/13 03:11:12;;;;;;;9.48;8.57;;;15.10;40.00;;;;;;5074305;28;20198;-68
2022/01/13 03:13:39;;;;;;;9.07;8.27;;;15.10;40.00;;;;;;5075218;28;20194;-69
2022/01/13 03:16:07;;;;;;;8.43;7.70;;;15.10;39.80;;;;;;5077595;28;20244;-66
2022/01/13 03:18:34;;;;;;;8.32;7.63;;;15.10;40.00;;;;;;5096679;28;20206;-70
2022/01/13 03:21:01;;;;;;;8.98;8.18;;;15.10;40.10;;;;;;5079635;28;20204;-69
2022/01/13 03:23:29;;;;;;;9.25;8.45;;;15.10;40.00;;;;;;5096303;28;20269;-66
2022/01/13 03:25:55;;;;;;;8.20;7.35;;;15.10;40.00;;;;;;5077763;28;20224;-69
2022/01/13 03:28:30;;;;;;;9.85;8.38;;;15.00;40.70;;;;;;5077684;28;20248;-69
2022/01/13 03:30:59;;;;;;;8.30;7.60;;;15.10;40.10;;;;;;5095884;28;20181;-69
2022/01/13 03:33:27;;;;;;;8.82;8.05;;;15.00;40.00;;;;;;5077661;28;20198;-69
2022/01/13 03:35:54;;;;;;;9.32;8.43;;;15.00;40.00;;;;;;5077489;28;20242;-69
2022/01/13 03:38:21;;;;;;;8.73;7.95;;;15.00;40.10;;;;;;5095431;28;20237;-68
2022/01/13 03:40:48;;;;;;;8.63;7.82;;;15.00;40.00;;;;;;5077572;28;20212;-69
2022/01/13 03:43:16;;;;;;;8.50;7.80;;;15.00;40.10;;;;;;5095622;28;20553;-70
2022/01/13 03:45:45;;;;;;;8.23;7.53;;;15.00;40.00;;;;;;5077366;28;20194;-68
2022/01/13 03:48:13;;;;;;;8.50;7.72;;;15.00;39.90;;;;;;5095286;28;20587;-66
2022/01/13 03:50:40;;;;;;;7.72;7.05;;;15.00;40.00;;;;;;5078079;28;20700;-67
2022/01/13 03:53:44;;;;;;;8.48;7.55;;;14.90;40.00;;;;;;5095493;28;20285;-69
2022/01/13 03:56:54;;;;;;;7.72;7.03;;;14.90;40.00;;;;;;5077008;28;20792;-70
2022/01/13 03:59:59;;;;;;;8.68;7.88;;;14.90;40.30;;;;;;5057341;28;20230;-66
2022/01/13 04:02:28;;;;;;;8.02;7.32;;;14.90;40.10;;;;;;5077249;28;20297;-68
2022/01/13 04:04:55;;;;;;;8.57;7.70;;;14.90;40.20;;;;;;5076943;28;20641;-69
2022/01/13 04:07:23;;;;;;;8.95;8.07;;;14.90;40.80;;;;;;5076894;28;20205;-68
2022/01/13 04:10:27;;;;;;;8.63;7.82;;;14.90;40.30;;;;;;5095209;28;20221;-67
2022/01/13 04:12:54;;;;;;;8.60;7.80;;;14.90;40.80;;;;;;5077102;28;20562;-68
2022/01/13 04:15:23;;;;;;;8.52;7.72;;;14.90;40.10;;;;;;5077334;28;20218;-69
2022/01/13 04:17:52;;;;;;;8.55;7.75;;;14.90;40.30;;;;;;5078311;28;20214;-70
2022/01/13 04:20:20;;;;;;;8.27;7.57;;;14.90;40.20;;;;;;5077609;28;20198;-70
2022/01/13 04:22:48;;;;;;;8.25;7.45;;;14.80;40.30;;;;;;5077022;28;20197;-68
2022/01/13 04:25:20;;;;;;;10.13;9.15;;;14.80;40.30;;;;;;5075907;28;20271;-68
2022/01/13 04:27:48;;;;;;;9.48;8.65;;;14.80;40.30;;;;;;5076851;28;20239;-67
2022/01/13 04:30:34;;;;;;;8.95;8.15;;;14.80;40.30;;;;;;5076625;28;20194;-66
2022/01/13 04:33:03;;;;;;;8.82;8.02;;;14.80;40.30;;;;;;5094643;28;20236;-68
2022/01/13 04:35:30;;;;;;;9.73;8.82;;;14.80;40.10;;;;;;5076354;28;20689;-68
2022/01/13 04:37:57;;;;;;;9.05;8.25;;;14.80;40.00;;;;;;5076215;28;20210;-69
2022/01/13 04:40:25;;;;;;;9.25;8.35;;;14.80;40.00;;;;;;5076129;28;20285;-69
2022/01/13 04:42:55;;;;;;;9.48;8.57;;;14.80;39.90;;;;;;5076212;28;20197;-68
2022/01/13 04:45:23;;;;;;;9.18;8.38;;;14.80;40.10;;;;;;5076337;28;20198;-67
2022/01/13 04:47:52;;;;;;;9.35;8.45;;;14.80;40.30;;;;;;5075886;28;20225;-67
2022/01/13 04:50:22;;;;;;;8.30;7.60;;;14.80;40.10;;;;;;5075795;28;20235;-66
2022/01/13 04:52:49;;;;;;;9.18;8.38;;;14.90;40.20;;;;;;5075908;28;20582;-69
2022/01/13 04:55:22;;;;;;;8.60;7.80;;;14.90;40.10;;;;;;5093956;28;20216;-70
2022/01/13 04:57:49;;;;;;;8.77;7.97;;;14.90;40.10;;;;;;5075614;28;20218;-70
2022/01/13 05:00:18;;;;;;;8.75;7.90;;;14.90;40.00;;;;;;5075594;28;20273;-69
2022/01/13 05:02:45;;;;;;;8.40;7.60;;;15.00;40.00;;;;;;5093855;28;20190;-69
2022/01/13 05:05:12;;;;;;;8.52;7.72;;;15.00;40.10;;;;;;5093624;28;20654;-66
2022/01/13 05:07:41;;;;;;;7.72;7.03;;;15.00;40.00;;;;;;5075345;28;20217;-69
2022/01/13 05:10:08;;;;;;;8.40;7.60;;;15.10;40.00;;;;;;5075680;28;20203;-70
2022/01/13 05:12:40;;;;;;;8.07;7.30;;;15.10;40.00;;;;;;5075218;28;20193;-69
2022/01/13 05:15:09;;;;;;;8.35;7.63;;;15.10;39.80;;;;;;5075475;28;20214;-68
2022/01/13 05:18:02;;;;;;;8.20;7.50;;;15.20;39.80;;;;;;5093361;28;20263;-68
2022/01/13 05:20:37;;;;;;;8.00;7.30;;;15.20;39.70;;;;;;5075091;28;20221;-66
2022/01/13 05:23:07;;;;;;;8.00;7.30;;;15.30;39.50;;;;;;5075195;28;20203;-69
2022/01/13 05:25:34;;;;;;;7.90;7.20;;;15.30;39.50;;;;;;5093369;28;20198;-69
2022/01/13 05:28:01;;;;;;;8.63;7.82;;;15.40;39.50;;;;;;5074871;28;20716;-66
2022/01/13 05:30:28;;;;;;;8.88;8.07;;;15.40;39.30;;;;;;5093247;28;20194;-69
2022/01/13 05:32:56;;;;;;;8.77;7.75;;;15.40;39.00;;;;;;5075118;28;20319;-70
2022/01/13 05:35:24;;;;;;;9.93;8.95;;;15.40;39.20;;;;;;5076683;28;20214;-68
2022/01/13 05:37:52;;;;;;;8.65;7.85;;;15.40;38.80;;;;;;5075070;28;20264;-66
2022/01/13 05:40:20;;;;;;;7.57;6.88;;;15.50;39.00;;;;;;5075321;28;20208;-69
2022/01/13 05:42:47;;;;;;;8.95;8.05;;;15.50;38.90;;;;;;5075906;28;20190;-69
2022/01/13 05:45:19;;;;;;;8.50;7.65;;;15.50;39.00;;;;;;5094453;28;20265;-69
2022/01/13 05:47:47;;;;;;;8.05;7.35;;;15.40;38.90;;;;;;5076729;28;20224;-68
2022/01/13 05:50:14;;;;;;;8.88;8.13;;;15.50;39.00;;;;;;5075883;28;20236;-67
2022/01/13 05:52:41;;;;;;;8.48;7.68;;;15.60;39.10;;;;;;5076093;28;20288;-68
2022/01/13 05:55:10;;;;;;;8.60;7.80;;;15.60;39.10;;;;;;5075359;28;20652;-69
2022/01/13 05:57:39;;;;;;;8.55;7.75;;;15.60;39.00;;;;;;5094060;28;20226;-70
2022/01/13 06:00:07;;;;;;;9.20;8.30;;;15.60;38.90;;;;;;5076247;28;20541;-68
2022/01/13 06:02:38;;;;;;;8.27;7.45;;;15.60;38.70;;;;;;5096240;28;20190;-70
2022/01/13 06:05:06;;;;;;;7.90;7.20;;;15.70;38.70;;;;;;5076684;28;20205;-68
2022/01/13 06:07:33;;;;;;;7.85;7.15;;;15.70;38.80;;;;;;5077831;28;20214;-66
2022/01/13 06:10:00;;;;;;;8.90;8.10;;;15.70;38.70;;;;;;5099563;28;20190;-68
2022/01/13 06:12:32;;;;;;;10.02;9.02;;;15.70;38.30;;;;;;5077289;28;20223;-69
2022/01/13 06:15:02;;;;;;;9.68;8.88;;;15.70;38.10;;;;;;5078481;28;20210;-70
2022/01/13 06:17:29;;;;;;;9.27;8.45;;;15.80;38.40;;;;;;5095558;28;20205;-68
2022/01/13 06:19:58;;;;;;;9.32;8.43;;;15.80;38.00;;;;;;5096387;28;20192;-68
2022/01/13 06:22:25;;;;;;;8.68;7.88;;;15.80;38.50;;;;;;5095720;28;20194;-66
2022/01/13 06:24:53;;;;;;;10.40;9.38;;;15.80;38.60;;;;;;5075361;28;20213;-70
2022/01/13 06:27:21;;;;;;;9.50;8.50;;;15.90;38.60;;;;;;5075254;28;20190;-68
2022/01/13 06:29:49;;;;;;;9.15;7.85;;;15.90;38.70;;;;;;5074899;28;20202;-69
2022/01/13 06:32:17;;;;;;;9.35;8.45;;;15.90;38.80;;;;;;5075179;28;20662;-66
2022/01/13 06:34:44;;;;;;;9.98;9.02;;;16.00;38.80;;;;;;5074858;28;20727;-69
2022/01/13 06:37:11;;;;;;;9.30;8.50;;;15.90;38.60;;;;;;5074704;28;20194;-68
2022/01/13 06:39:38;;;;;;;10.73;9.73;;;15.90;38.60;;;;;;5074464;28;20696;-66
2022/01/13 06:42:06;;;;;;;9.25;8.18;;;15.90;38.60;;;;;;5074711;28;20297;-68
2022/01/13 06:44:33;;;;;;;9.48;8.57;;;16.00;38.60;;;;;;5074488;28;20186;-70
2022/01/13 06:47:00;;;;;;;8.80;7.93;;;16.00;38.50;;;;;;5092417;28;20269;-68
2022/01/13 06:49:28;;;;;;;9.85;8.85;;;16.00;38.60;;;;;;5076734;28;20220;-66
2022/01/13 06:51:56;;;;;;;9.45;8.10;;;16.00;38.50;;;;;;5078001;28;20575;-69
2022/01/13 06:54:23;;;;;;;9.98;8.98;;;16.00;38.70;;;;;;5096459;28;20194;-69
2022/01/13 06:56:50;;;;;;;10.60;9.60;;;16.10;38.60;;;;;;5096330;28;20206;-68
2022/01/13 06:59:17;;;;;;;9.18;8.27;;;16.00;38.20;;;;;;5078186;28;20585;-68
2022/01/13 07:01:45;;;;;;;8.82;8.02;;;16.00;38.40;;;;;;5078312;28;20287;-67
2022/01/13 07:04:13;;;;;;;9.30;8.40;;;16.00;38.70;;;;;;5078134;28;20198;-68
2022/01/13 07:06:41;;;;;;;9.82;8.82;;;16.10;38.60;;;;;;5078224;28;20247;-66
2022/01/13 07:09:10;;;;;;;9.50;8.57;;;16.00;38.60;;;;;;5078322;28;20586;-67
2022/01/13 07:11:37;;;;;;;9.13;8.32;;;16.10;38.80;;;;;;5079143;28;20269;-69
2022/01/13 07:14:04;;;;;;;10.05;9.05;;;16.10;38.60;;;;;;5078435;28;20618;-70
2022/01/13 07:16:31;;;;;;;9.02;8.23;;;16.00;38.50;;;;;;5078166;28;20222;-66
2022/01/13 07:18:58;;;;;;;9.18;8.38;;;16.00;38.30;;;;;;5096174;28;20259;-70
2022/01/13 07:21:27;;;;;;;8.73;7.93;;;16.10;38.60;;;;;;5077825;28;20680;-69
2022/01/13 07:23:56;;;;;;;9.23;8.32;;;16.00;38.50;;;;;;5078337;28;20190;-68
2022/01/13 07:26:23;;;;;;;9.13;8.23;;;16.00;38.20;;;;;;5096167;28;20293;-66
2022/01/13 07:28:50;;;;;;;8.90;8.07;;;16.10;38.60;;;;;;5095966;28;20587;-66
2022/01/13 07:31:17;;;;;;;10.52;9.43;;;16.10;38.90;;;;;;5077815;28;20267;-69
2022/01/13 07:33:44;;;;;;;8.80;8.00;;;16.10;38.20;;;;;;5095674;28;20194;-69
2022/01/13 07:36:11;;;;;;;9.30;8.40;;;16.10;38.20;;;;;;5077225;28;20224;-67
2022/01/13 07:38:38;;;;;;;9.00;8.20;;;16.20;38.20;;;;;;5077402;28;20217;-69
2022/01/13 07:41:07;;;;;;;8.85;8.00;;;16.20;37.80;;;;;;5079017;28;20225;-68
2022/01/13 07:43:34;;;;;;;9.48;8.63;;;16.20;37.90;;;;;;5077130;28;20251;-67
2022/01/13 07:46:01;;;;;;;10.32;9.43;;;16.20;38.00;;;;;;5077417;28;20204;-66
2022/01/13 07:48:28;;;;;;;9.25;8.35;;;16.20;37.60;;;;;;5076960;28;20558;-67
2022/01/13 07:50:55;;;;;;;9.77;8.85;;;16.20;37.60;;;;;;5077160;28;20567;-67
2022/01/13 07:53:22;;;;;;;8.90;8.10;;;16.20;38.00;;;;;;5076600;28;20190;-67
2022/01/13 07:55:49;;;;;;;9.30;8.48;;;16.20;37.70;;;;;;5076760;28;20218;-70
2022/01/13 07:58:18;;;;;;;9.52;8.68;;;16.20;37.70;;;;;;5077146;28;20275;-68
2022/01/13 08:00:46;;;;;;;9.32;8.43;;;16.20;38.40;;;;;;5093864;28;20269;-67
2022/01/13 08:03:13;;;;;;;9.55;8.60;;;16.20;37.50;;;;;;5076727;28;20198;-69
2022/01/13 08:05:40;;;;;;;9.27;8.23;;;16.20;37.40;;;;;;5076861;28;20201;-69
2022/01/13 08:08:09;;;;;;;9.60;8.70;;;16.30;37.60;;;;;;5076785;28;20305;-70
2022/01/13 08:10:36;;;;;;;10.52;9.52;;;16.30;37.50;;;;;;5094452;28;20190;-70
2022/01/13 08:13:03;;;;;;;9.85;8.85;;;16.30;37.30;;;;;;5076601;28;20217;-66
2022/01/13 08:15:35;;;;;;;10.60;9.50;;;16.30;37.30;;;;;;5094547;28;20209;-69
2022/01/13 08:20:46;;;;;;;10.30;8.70;;;16.30;37.20;;;;;;5076366;28;20606;-66
2022/01/13 08:23:13;;;;;;;10.07;9.18;;;16.30;37.00;;;;;;5076437;28;20210;-69
2022/01/13 08:25:41;;;;;;;9.13;8.18;;;16.30;36.80;;;;;;5076300;28;20226;-66
2022/01/13 08:28:08;;;;;;;10.70;9.70;;;16.40;36.90;;;;;;5076437;28;20263;-67
2022/01/13 08:30:37;;;;;;;9.05;8.18;;;16.40;36.90;;;;;;5094398;28;20182;-69
2022/01/13 08:33:04;;;;;;;9.90;8.90;;;16.40;37.30;;;;;;5076188;28;20562;-67
2022/01/13 08:35:31;;;;;;;9.05;8.15;;;16.40;36.90;;;;;;5094073;28;20217;-68
2022/01/13 08:38:05;;;;;;;9.93;8.98;;;16.40;37.10;;;;;;5094401;28;20708;-69
2022/01/13 08:40:34;;;;;;;9.95;9.05;;;16.40;36.90;;;;;;5094044;28;20181;-67
2022/01/13 08:43:02;;;;;;;11.60;8.80;;;16.40;36.90;;;;;;5093963;28;20194;-66
2022/01/13 08:45:29;;;;;;;9.32;8.32;;;16.50;36.70;;;;;;5075887;28;20658;-66
2022/01/13 08:47:57;;;;;;;10.75;9.65;;;16.50;36.80;;;;;;5075879;28;20221;-69
2022/01/13 08:50:25;;;;;;;12.63;9.60;;;16.50;36.30;;;;;;5075808;28;20202;-69
2022/01/13 08:52:51;;;;;;;9.43;8.60;;;16.50;36.20;;;;;;5075997;28;20190;-65
2022/01/13 08:55:19;;;;;;;9.43;8.50;;;16.60;37.20;;;;;;5076005;28;20198;-69
2022/01/13 08:57:46;;;;;;;10.80;9.68;;;16.60;36.40;;;;;;5075577;28;20242;-69
2022/01/13 09:00:13;;;;;;;10.82;9.77;;;16.60;37.00;;;;;;5093799;28;20193;-67
2022/01/13 09:02:44;;;;;;;9.18;8.27;;;16.60;36.20;;;;;;5076180;28;20202;-66
2022/01/13 09:05:13;;;;;;;9.93;8.93;;;16.60;36.50;;;;;;5075650;28;20194;-67
2022/01/13 09:07:41;;;;;;;9.85;8.93;;;16.60;36.30;;;;;;5075888;28;20210;-69
2022/01/13 09:10:09;;;;;;;10.20;8.95;;;16.70;36.40;;;;;;5075650;28;20202;-70
2022/01/13 09:12:36;;;;;;;10.50;9.45;;;16.70;36.70;;;;;;5075312;28;20293;-68
2022/01/13 09:15:14;;;;;;;9.70;8.25;;;16.70;36.50;;;;;;5076014;28;20206;-68
2022/01/13 09:17:42;;;;;;;8.88;8.07;;;16.80;36.60;;;;;;5075491;28;20253;-69
2022/01/13 09:20:10;;;;;;;9.73;8.85;;;16.80;36.30;;;;;;5094066;28;20276;-69
2022/01/13 09:22:39;;;;;;;10.73;9.73;;;16.80;36.30;;;;;;5075582;28;20205;-67
2022/01/13 09:25:07;;;;;;;10.02;9.02;;;16.80;36.50;;;;;;5093748;28;20186;-66
2022/01/13 09:27:35;;;;;;;8.77;7.88;;;16.80;36.20;;;;;;5075441;28;20210;-67
2022/01/13 09:30:02;;;;;;;9.18;8.27;;;16.80;36.20;;;;;;5075412;28;20289;-69
2022/01/13 09:32:29;;;;;;;9.98;9.05;;;16.90;36.90;;;;;;5075450;28;20194;-69
2022/01/13 09:34:56;;;;;;;9.80;8.90;;;16.90;36.30;;;;;;5075537;28;20198;-69
2022/01/13 09:37:24;;;;;;;8.98;8.18;;;16.90;35.90;;;;;;5075136;28;20225;-69
2022/01/13 09:39:52;;;;;;;9.82;8.82;;;16.90;36.20;;;;;;5093370;28;20190;-69
2022/01/13 09:42:19;;;;;;;10.32;9.07;;;16.90;35.90;;;;;;5093512;28;20188;-68
2022/01/13 09:44:46;;;;;;;9.65;8.82;;;16.90;35.90;;;;;;5075090;28;20247;-67
2022/01/13 09:47:13;;;;;;;9.65;8.65;;;16.90;35.80;;;;;;5075084;28;20196;-68
2022/01/13 09:49:40;;;;;;;11.02;9.50;;;16.90;35.80;;;;;;5093233;28;20213;-69
2022/01/13 09:52:07;;;;;;;10.15;9.25;;;16.90;35.70;;;;;;5093042;28;20198;-67
2022/01/13 09:54:35;;;;;;;9.50;8.60;;;16.90;35.40;;;;;;5075535;28;20201;-69
2022/01/13 09:57:03;;;;;;;9.43;8.55;;;16.90;36.10;;;;;;5075419;28;20626;-70
2022/01/13 09:59:31;;;;;;;10.75;9.02;;;16.90;36.10;;;;;;5075319;28;20248;-68
2022/01/13 10:01:57;;;;;;;9.95;9.05;;;16.90;35.70;;;;;;5076186;28;20200;-68
2022/01/13 10:04:25;;;;;;;10.00;9.10;;;16.90;35.90;;;;;;5075800;28;20586;-70
2022/01/13 10:06:52;;;;;;;10.45;9.40;;;16.90;35.80;;;;;;5075403;28;20733;-70
2022/01/13 10:09:19;;;;;;;9.63;8.75;;;16.90;35.40;;;;;;5075290;28;20218;-68
2022/01/13 10:11:53;;;;;;;10.02;9.02;;;16.90;35.60;;;;;;5075329;28;20190;-68
2022/01/13 10:17:06;;;;;;;9.32;8.40;;;16.90;36.10;;;;;;5074058;28;20240;-69
2022/01/13 10:19:35;;;;;;;10.18;9.27;;;16.90;36.10;;;;;;5093307;28;20212;-66
2022/01/13 10:22:03;;;;;;;10.07;9.07;;;16.90;35.90;;;;;;5093316;28;20248;-66
2022/01/13 10:24:31;;;;;;;9.93;9.02;;;16.90;35.90;;;;;;5077692;28;20204;-69
2022/01/13 10:27:08;;;;;;;9.65;8.75;;;16.90;35.80;;;;;;5078862;28;20194;-69
2022/01/13 10:29:47;;;;;;;9.57;8.57;;;16.90;35.80;;;;;;5079139;28;20213;-66
2022/01/13 10:32:15;;;;;;;9.73;8.77;;;16.90;35.60;;;;;;5079149;28;20672;-69
2022/01/13 10:34:44;;;;;;;9.70;8.82;;;16.90;36.00;;;;;;5078625;28;20194;-69
2022/01/13 10:37:14;;;;;;;9.20;8.35;;;16.90;36.00;;;;;;5079014;28;20233;-70
2022/01/13 10:39:49;;;;;;;10.07;9.07;;;16.90;36.20;;;;;;5078935;28;20235;-70
2022/01/13 10:42:44;;;;;;;9.02;8.13;;;16.90;35.70;;;;;;5096735;28;20200;-69
2022/01/13 10:45:12;;;;;;;9.40;8.57;;;16.90;36.10;;;;;;5078472;28;20269;-70
2022/01/13 10:47:39;;;;;;;9.18;8.32;;;16.90;35.80;;;;;;5078538;28;20224;-69
2022/01/13 10:50:09;;;;;;;9.32;8.27;;;16.90;36.10;;;;;;5078195;28;20198;-68
2022/01/13 10:52:35;;;;;;;9.38;8.48;;;16.90;36.20;;;;;;5078422;28;20205;-67
2022/01/13 10:55:09;;;;;;;8.27;7.47;;;17.00;36.00;;;;;;5078038;28;20658;-66
2022/01/13 10:57:37;;;;;;;9.35;8.48;;;17.00;36.90;;;;;;5078303;28;20221;-67
2022/01/13 11:00:05;;;;;;;8.27;7.47;;;17.00;36.20;;;;;;5078365;28;20202;-66
2022/01/13 11:02:34;;;;;;;8.43;7.63;;;17.00;36.10;;;;;;5078178;28;20194;-69
2022/01/13 11:05:02;;;;;;;8.02;7.30;;;17.00;36.30;;;;;;5078328;28;20630;-70
2022/01/13 11:07:30;;;;;;;7.95;7.15;;;17.00;36.30;;;;;;5077980;28;20603;-70
2022/01/13 11:09:58;;;;;;;8.13;7.43;;;17.00;36.30;;;;;;5096431;28;20611;-68
2022/01/13 11:12:30;;;;;;;7.85;7.00;;;17.00;36.40;;;;;;5096059;28;20209;-66
2022/01/13 11:15:01;;;;;;;8.10;7.40;;;17.00;36.60;;;;;;5077948;28;20202;-67
2022/01/13 11:17:29;;;;;;;7.70;7.00;;;17.00;36.60;;;;;;5077793;28;20214;-67
2022/01/13 11:19:57;;;;;;;7.45;6.75;;;17.00;36.50;;;;;;5078424;28;20285;-69
2022/01/13 11:22:25;;;;;;;7.90;7.20;;;17.10;36.60;;;;;;5095833;28;20198;-68
2022/01/13 11:24:52;;;;;;;7.70;7.00;;;17.10;36.60;;;;;;5077921;28;20198;-69
2022/01/13 11:27:21;;;;;;;7.50;6.80;;;17.10;36.50;;;;;;5095945;28;20662;-66
2022/01/13 11:29:49;;;;;;;6.82;6.20;;;17.10;37.10;;;;;;5078167;28;20198;-68
2022/01/13 11:32:16;;;;;;;7.15;6.03;;;17.10;36.70;;;;;;5095786;28;20190;-69
2022/01/13 11:34:43;;;;;;;7.65;6.95;;;17.10;36.60;;;;;;5077349;28;20194;-69
2022/01/13 11:37:11;;;;;;;6.25;5.72;;;17.10;36.70;;;;;;5077402;28;20221;-67
2022/01/13 11:39:39;;;;;;;6.57;5.97;;;17.20;36.60;;;;;;5077709;28;20204;-66
2022/01/13 11:42:07;;;;;;;7.05;6.40;;;17.20;36.70;;;;;;5077579;28;20194;-69
2022/01/13 11:44:34;;;;;;;7.43;6.68;;;17.20;36.50;;;;;;5077502;28;20248;-69
2022/01/13 11:47:01;;;;;;;7.15;6.55;;;17.20;36.40;;;;;;5077459;28;20194;-67
2022/01/13 11:49:40;;;;;;;7.13;6.43;;;17.20;37.10;;;;;;5077378;28;20582;-66
2022/01/13 11:52:14;;;;;;;6.88;6.25;;;17.30;36.50;;;;;;5077340;28;20225;-69
2022/01/13 11:54:43;;;;;;;6.88;6.28;;;17.30;36.60;;;;;;5077541;28;20191;-66
2022/01/13 11:57:15;;;;;;;6.70;6.15;;;17.30;36.20;;;;;;5077192;28;20696;-69
2022/01/13 12:00:16;;;;;;;7.03;6.13;;;17.30;36.30;;;;;;5077235;28;20231;-66
2022/01/13 12:02:43;;;;;;;6.95;6.25;;;17.40;36.30;;;;;;5072698;28;20707;-69
2022/01/13 12:05:14;;;;;;;7.30;6.60;;;17.50;36.30;;;;;;5076797;28;20541;-66
2022/01/13 12:07:43;;;;;;;7.70;6.90;;;17.50;36.40;;;;;;5095193;28;20255;-67
2022/01/13 12:10:33;;;;;;;7.13;6.43;;;17.50;36.00;;;;;;5095282;28;20725;-66
2022/01/13 12:13:00;;;;;;;6.53;6.00;;;17.50;36.00;;;;;;5094952;28;20197;-68
2022/01/13 12:15:28;;;;;;;6.88;6.28;;;17.50;36.00;;;;;;5077405;28;20196;-68
2022/01/13 12:17:58;;;;;;;6.32;5.72;;;17.60;36.00;;;;;;5076940;28;20382;-68
2022/01/13 12:20:30;;;;;;;6.88;6.28;;;17.60;36.10;;;;;;5076895;28;20553;-66
2022/01/13 12:23:14;;;;;;;7.15;6.55;;;17.60;36.40;;;;;;5077090;28;20231;-67
2022/01/13 12:25:43;;;;;;;7.18;6.47;;;17.70;36.00;;;;;;5095082;28;20198;-69
2022/01/13 12:28:14;;;;;;;6.95;6.35;;;17.70;36.10;;;;;;5076658;28;20210;-68
2022/01/13 12:30:41;;;;;;;6.10;5.60;;;17.70;36.00;;;;;;5094935;28;20626;-67
2022/01/13 12:33:09;;;;;;;6.70;6.10;;;17.80;36.00;;;;;;5076710;28;20221;-67
2022/01/13 12:35:45;;;;;;;7.30;6.70;;;17.80;35.80;;;;;;5077185;28;20198;-69
2022/01/13 12:38:13;;;;;;;6.18;5.68;;;17.90;35.60;;;;;;5077041;28;20232;-67
2022/01/13 12:40:43;;;;;;;6.80;6.20;;;17.90;35.80;;;;;;5076651;28;20675;-68
2022/01/13 12:43:33;;;;;;;6.32;5.72;;;17.90;35.60;;;;;;5076997;28;20194;-67
2022/01/13 12:46:00;;;;;;;7.18;6.20;;;17.90;35.70;;;;;;5076212;28;20620;-69
2022/01/13 12:48:29;;;;;;;6.45;5.95;;;17.90;35.80;;;;;;5077141;28;20218;-68
2022/01/13 12:50:56;;;;;;;6.50;5.93;;;18.00;35.70;;;;;;5077507;28;20194;-69
2022/01/13 12:53:25;;;;;;;6.43;5.70;;;18.00;35.60;;;;;;5077745;28;20738;-67
2022/01/13 12:55:56;;;;;;;6.63;6.03;;;18.00;36.00;;;;;;5095207;28;20187;-69
2022/01/13 12:58:26;;;;;;;6.63;6.00;;;18.10;35.90;;;;;;5095127;28;20254;-68
2022/01/13 13:00:56;;;;;;;6.57;5.97;;;18.10;36.00;;;;;;5094963;28;20197;-70
2022/01/13 13:03:23;;;;;;;6.07;5.57;;;18.10;35.70;;;;;;5077472;28;20212;-71
2022/01/13 13:05:52;;;;;;;6.82;6.22;;;18.10;35.90;;;;;;5096260;28;20224;-69